sensor_id;sensor_type;location;lat;lon;timestamp;pressure;altitude;pressure_sealevel;temperature;humidity
56270;BME280;42176;43.240;27.880;2023-06-10T00:01:12;99543.28;;;17.33;65.57
56270;BME280;42176;43.240;27.880;2023-06-10T00:03:37;99546.03;;;17.32;65.89
56270;BME280;42176;43.240;27.880;2023-06-10T00:06:04;99515.97;;;17.12;65.15
56270;BME280;42176;43.240;27.880;2023-06-10T00:08:30;99541.81;;;17.28;65.13
56270;BME280;42176;43.240;27.880;2023-06-10T00:10:56;99553.50;;;17.27;64.47
56270;BME280;42176;43.240;27.880;2023-06-10T00:13:22;99553.50;;;17.27;65.12
56270;BME280;42176;43.240;27.880;2023-06-10T00:15:48;99553.75;;;17.22;65.11
56270;BME280;42176;43.240;27.880;2023-06-10T00:18:13;99550.38;;;17.18;64.69
56270;BME280;42176;43.240;27.880;2023-06-10T00:20:39;99529.25;;;16.98;64.97
56270;BME280;42176;43.240;27.880;2023-06-10T00:23:04;99550.00;;;17.10;65.26
56270;BME280;42176;43.240;27.880;2023-06-10T00:25:32;99541.34;;;17.05;63.86
56270;BME280;42176;43.240;27.880;2023-06-10T00:27:58;99538.28;;;16.97;63.82
56270;BME280;42176;43.240;27.880;2023-06-10T00:30:23;99546.03;;;17.01;63.34
56270;BME280;42176;43.240;27.880;2023-06-10T00:32:49;99538.41;;;16.94;63.09
56270;BME280;42176;43.240;27.880;2023-06-10T00:35:14;99537.50;;;16.95;63.25
56270;BME280;42176;43.240;27.880;2023-06-10T00:37:40;99547.75;;;17.02;63.05
56270;BME280;42176;43.240;27.880;2023-06-10T00:40:06;99528.56;;;16.94;62.73
56270;BME280;42176;43.240;27.880;2023-06-10T00:42:34;99544.13;;;17.03;62.69
56270;BME280;42176;43.240;27.880;2023-06-10T00:44:59;99543.25;;;17.03;63.33
56270;BME280;42176;43.240;27.880;2023-06-10T00:47:25;99535.66;;;16.95;61.67
56270;BME280;42176;43.240;27.880;2023-06-10T00:49:51;99541.53;;;17.02;61.51
56270;BME280;42176;43.240;27.880;2023-06-10T00:52:17;99543.44;;;17.00;61.68
56270;BME280;42176;43.240;27.880;2023-06-10T00:54:44;99548.78;;;17.00;62.41
56270;BME280;42176;43.240;27.880;2023-06-10T00:57:11;99546.88;;;17.02;60.63
56270;BME280;42176;43.240;27.880;2023-06-10T00:59:39;99547.75;;;17.02;59.98
56270;BME280;42176;43.240;27.880;2023-06-10T01:02:05;99546.53;;;17.08;61.30
56270;BME280;42176;43.240;27.880;2023-06-10T01:04:30;99552.56;;;17.12;60.71
56270;BME280;42176;43.240;27.880;2023-06-10T01:07:24;99546.38;;;17.11;60.68
56270;BME280;42176;43.240;27.880;2023-06-10T01:10:24;99549.78;;;17.13;61.96
56270;BME280;42176;43.240;27.880;2023-06-10T01:13:03;99548.09;;;17.12;62.32
56270;BME280;42176;43.240;27.880;2023-06-10T01:15:34;99546.38;;;17.11;62.43
56270;BME280;42176;43.240;27.880;2023-06-10T01:18:02;99545.41;;;17.12;62.84
56270;BME280;42176;43.240;27.880;2023-06-10T01:20:29;99542.72;;;17.12;63.02
56270;BME280;42176;43.240;27.880;2023-06-10T01:22:58;99534.59;;;17.14;62.05
56270;BME280;42176;43.240;27.880;2023-06-10T01:25:24;99536.22;;;17.16;61.68
56270;BME280;42176;43.240;27.880;2023-06-10T01:28:18;99528.00;;;17.19;62.28
56270;BME280;42176;43.240;27.880;2023-06-10T01:33:36;99510.88;;;17.22;60.39
56270;BME280;42176;43.240;27.880;2023-06-10T01:36:03;99511.75;;;17.23;60.69
56270;BME280;42176;43.240;27.880;2023-06-10T01:38:47;99527.97;;;17.35;60.01
56270;BME280;42176;43.240;27.880;2023-06-10T01:41:18;99538.41;;;17.40;59.46
56270;BME280;42176;43.240;27.880;2023-06-10T01:43:45;99527.69;;;17.40;59.53
56270;BME280;42176;43.240;27.880;2023-06-10T01:46:10;99514.47;;;17.37;59.57
56270;BME280;42176;43.240;27.880;2023-06-10T01:48:37;99514.66;;;17.34;59.94
56270;BME280;42176;43.240;27.880;2023-06-10T01:51:03;99521.56;;;17.38;60.08
56270;BME280;42176;43.240;27.880;2023-06-10T01:53:29;99524.25;;;17.38;60.58
56270;BME280;42176;43.240;27.880;2023-06-10T01:55:54;99517.94;;;17.39;59.80
56270;BME280;42176;43.240;27.880;2023-06-10T01:58:20;99530.38;;;17.40;59.89
56270;BME280;42176;43.240;27.880;2023-06-10T02:00:45;99521.38;;;17.41;59.13
56270;BME280;42176;43.240;27.880;2023-06-10T02:03:11;99523.84;;;17.44;58.84
56270;BME280;42176;43.240;27.880;2023-06-10T02:05:36;99533.44;;;17.48;58.56
56270;BME280;42176;43.240;27.880;2023-06-10T02:08:02;99517.94;;;17.39;58.96
56270;BME280;42176;43.240;27.880;2023-06-10T02:10:27;99521.38;;;17.41;61.23
56270;BME280;42176;43.240;27.880;2023-06-10T02:12:53;99528.47;;;17.42;61.22
56270;BME280;42176;43.240;27.880;2023-06-10T02:15:18;99527.69;;;17.40;62.95
56270;BME280;42176;43.240;27.880;2023-06-10T02:17:43;99528.66;;;17.39;61.66
56270;BME280;42176;43.240;27.880;2023-06-10T02:20:10;99535.50;;;17.29;63.13
56270;BME280;42176;43.240;27.880;2023-06-10T02:22:36;99528.50;;;17.26;65.46
56270;BME280;42176;43.240;27.880;2023-06-10T02:25:02;99538.72;;;17.19;67.58
56270;BME280;42176;43.240;27.880;2023-06-10T02:27:29;99539.84;;;17.15;72.30
56270;BME280;42176;43.240;27.880;2023-06-10T02:29:56;99540.81;;;17.14;77.14
56270;BME280;42176;43.240;27.880;2023-06-10T02:32:22;99535.81;;;17.08;69.77
56270;BME280;42176;43.240;27.880;2023-06-10T02:34:47;99534.28;;;17.04;67.55
56270;BME280;42176;43.240;27.880;2023-06-10T02:37:14;99528.31;;;16.99;65.52
56270;BME280;42176;43.240;27.880;2023-06-10T02:39:40;99523.06;;;16.97;65.70
56270;BME280;42176;43.240;27.880;2023-06-10T02:42:06;99524.78;;;16.98;64.92
56270;BME280;42176;43.240;27.880;2023-06-10T02:44:31;99531.00;;;16.99;65.00
56270;BME280;42176;43.240;27.880;2023-06-10T02:46:57;99528.25;;;17.00;64.45
56270;BME280;42176;43.240;27.880;2023-06-10T02:49:22;99525.28;;;17.05;63.71
56270;BME280;42176;43.240;27.880;2023-06-10T02:51:49;99526.84;;;17.09;64.70
56270;BME280;42176;43.240;27.880;2023-06-10T02:54:18;99533.72;;;17.13;65.58
56270;BME280;42176;43.240;27.880;2023-06-10T02:56:43;99527.69;;;17.10;68.01
56270;BME280;42176;43.240;27.880;2023-06-10T02:59:09;99532.38;;;17.06;67.26
56270;BME280;42176;43.240;27.880;2023-06-10T03:01:34;99538.56;;;17.07;69.96
56270;BME280;42176;43.240;27.880;2023-06-10T03:04:03;99546.72;;;17.05;71.86
56270;BME280;42176;43.240;27.880;2023-06-10T03:06:29;99546.38;;;17.11;74.83
56270;BME280;42176;43.240;27.880;2023-06-10T03:08:54;99535.44;;;17.14;70.52
56270;BME280;42176;43.240;27.880;2023-06-10T03:11:20;99549.25;;;17.23;71.38
56270;BME280;42176;43.240;27.880;2023-06-10T03:14:04;99533.19;;;17.23;70.93
56270;BME280;42176;43.240;27.880;2023-06-10T03:16:30;99533.78;;;17.28;70.38
56270;BME280;42176;43.240;27.880;2023-06-10T03:18:56;99525.81;;;17.57;64.66
56270;BME280;42176;43.240;27.880;2023-06-10T03:21:22;99523.53;;;18.23;62.23
56270;BME280;42176;43.240;27.880;2023-06-10T03:23:48;99527.06;;;18.80;62.86
56270;BME280;42176;43.240;27.880;2023-06-10T03:26:13;99534.75;;;19.26;60.96
56270;BME280;42176;43.240;27.880;2023-06-10T03:28:40;99525.09;;;19.62;60.44
56270;BME280;42176;43.240;27.880;2023-06-10T03:31:06;99534.59;;;20.07;59.08
56270;BME280;42176;43.240;27.880;2023-06-10T03:33:31;99538.59;;;20.51;57.20
56270;BME280;42176;43.240;27.880;2023-06-10T03:35:57;99544.50;;;20.94;57.12
56270;BME280;42176;43.240;27.880;2023-06-10T03:38:23;99533.88;;;21.39;56.52
56270;BME280;42176;43.240;27.880;2023-06-10T03:40:48;99535.63;;;21.87;56.34
56270;BME280;42176;43.240;27.880;2023-06-10T03:43:13;99522.97;;;22.33;55.03
56270;BME280;42176;43.240;27.880;2023-06-10T03:45:39;99529.88;;;22.93;53.48
56270;BME280;42176;43.240;27.880;2023-06-10T03:48:06;99519.72;;;23.39;51.31
56270;BME280;42176;43.240;27.880;2023-06-10T03:50:33;99520.13;;;23.98;50.27
56270;BME280;42176;43.240;27.880;2023-06-10T03:52:58;99524.94;;;24.35;48.56
56270;BME280;42176;43.240;27.880;2023-06-10T03:55:24;99515.53;;;24.70;47.55
56270;BME280;42176;43.240;27.880;2023-06-10T03:58:08;99529.53;;;25.05;45.38
56270;BME280;42176;43.240;27.880;2023-06-10T04:00:34;99520.41;;;25.45;45.17
56270;BME280;42176;43.240;27.880;2023-06-10T04:03:10;99521.69;;;25.98;44.69
56270;BME280;42176;43.240;27.880;2023-06-10T04:05:40;99522.91;;;26.52;43.53
56270;BME280;42176;43.240;27.880;2023-06-10T04:08:06;99507.97;;;27.02;41.41
56270;BME280;42176;43.240;27.880;2023-06-10T04:10:33;99510.75;;;27.46;40.36
56270;BME280;42176;43.240;27.880;2023-06-10T04:12:59;99519.13;;;27.71;39.50
56270;BME280;42176;43.240;27.880;2023-06-10T04:15:25;99508.88;;;28.00;39.32
56270;BME280;42176;43.240;27.880;2023-06-10T04:17:50;99508.25;;;28.40;39.41
56270;BME280;42176;43.240;27.880;2023-06-10T04:20:16;99521.00;;;28.99;38.70
56270;BME280;42176;43.240;27.880;2023-06-10T04:22:41;99512.69;;;29.59;37.42
56270;BME280;42176;43.240;27.880;2023-06-10T04:25:09;99516.16;;;30.17;36.35
56270;BME280;42176;43.240;27.880;2023-06-10T04:27:34;99517.28;;;30.71;35.60
56270;BME280;42176;43.240;27.880;2023-06-10T04:30:00;99521.81;;;31.10;34.82
56270;BME280;42176;43.240;27.880;2023-06-10T04:32:25;99520.50;;;31.68;33.61
56270;BME280;42176;43.240;27.880;2023-06-10T04:34:52;99516.75;;;32.14;32.66
56270;BME280;42176;43.240;27.880;2023-06-10T04:37:17;99523.34;;;32.64;32.40
56270;BME280;42176;43.240;27.880;2023-06-10T04:39:43;99518.84;;;33.15;31.36
56270;BME280;42176;43.240;27.880;2023-06-10T04:42:09;99512.91;;;33.62;30.58
56270;BME280;42176;43.240;27.880;2023-06-10T04:44:34;99525.50;;;34.06;29.94
56270;BME280;42176;43.240;27.880;2023-06-10T04:46:59;99512.59;;;34.49;29.73
56270;BME280;42176;43.240;27.880;2023-06-10T04:49:25;99519.97;;;34.97;28.77
56270;BME280;42176;43.240;27.880;2023-06-10T04:51:50;99520.00;;;35.30;28.54
56270;BME280;42176;43.240;27.880;2023-06-10T04:54:16;99536.97;;;35.67;28.19
56270;BME280;42176;43.240;27.880;2023-06-10T04:56:42;99528.28;;;35.37;28.11
56270;BME280;42176;43.240;27.880;2023-06-10T04:59:07;99534.66;;;35.78;28.31
56270;BME280;42176;43.240;27.880;2023-06-10T05:01:33;99525.28;;;35.92;27.64
56270;BME280;42176;43.240;27.880;2023-06-10T05:03:58;99531.22;;;35.89;28.05
56270;BME280;42176;43.240;27.880;2023-06-10T05:06:24;99529.53;;;35.21;28.99
56270;BME280;42176;43.240;27.880;2023-06-10T05:08:49;99529.72;;;34.99;28.28
56270;BME280;42176;43.240;27.880;2023-06-10T05:11:15;99534.81;;;35.02;28.74
56270;BME280;42176;43.240;27.880;2023-06-10T05:13:41;99535.31;;;34.71;27.64
56270;BME280;42176;43.240;27.880;2023-06-10T05:16:08;99533.25;;;33.96;26.24
56270;BME280;42176;43.240;27.880;2023-06-10T05:18:34;99510.28;;;34.10;25.66
56270;BME280;42176;43.240;27.880;2023-06-10T05:21:01;99540.84;;;34.29;25.82
56270;BME280;42176;43.240;27.880;2023-06-10T05:23:26;99531.78;;;34.84;25.58
56270;BME280;42176;43.240;27.880;2023-06-10T05:25:52;99522.53;;;35.12;24.25
56270;BME280;42176;43.240;27.880;2023-06-10T05:28:17;99532.72;;;35.31;24.72
56270;BME280;42176;43.240;27.880;2023-06-10T05:30:43;99529.78;;;35.73;23.56
56270;BME280;42176;43.240;27.880;2023-06-10T05:33:09;99534.00;;;36.03;23.36
56270;BME280;42176;43.240;27.880;2023-06-10T05:35:34;99527.94;;;36.46;22.91
56270;BME280;42176;43.240;27.880;2023-06-10T05:38:00;99518.44;;;36.81;22.47
56270;BME280;42176;43.240;27.880;2023-06-10T05:40:25;99517.97;;;36.84;22.39
56270;BME280;42176;43.240;27.880;2023-06-10T05:42:50;99515.03;;;36.79;22.61
56270;BME280;42176;43.240;27.880;2023-06-10T05:45:16;99518.00;;;36.77;22.17
56270;BME280;42176;43.240;27.880;2023-06-10T05:47:41;99514.53;;;36.95;22.36
56270;BME280;42176;43.240;27.880;2023-06-10T05:50:07;99507.38;;;37.20;22.25
56270;BME280;42176;43.240;27.880;2023-06-10T05:52:34;99505.19;;;35.31;24.63
56270;BME280;42176;43.240;27.880;2023-06-10T05:55:00;99509.41;;;35.67;25.84
56270;BME280;42176;43.240;27.880;2023-06-10T05:57:25;99514.75;;;36.41;25.30
56270;BME280;42176;43.240;27.880;2023-06-10T05:59:51;99510.63;;;36.71;25.43
56270;BME280;42176;43.240;27.880;2023-06-10T06:02:17;99517.78;;;37.17;25.49
56270;BME280;42176;43.240;27.880;2023-06-10T06:04:42;99520.50;;;37.24;24.84
56270;BME280;42176;43.240;27.880;2023-06-10T06:07:08;99511.88;;;37.07;24.79
56270;BME280;42176;43.240;27.880;2023-06-10T06:09:33;99514.81;;;36.28;25.73
56270;BME280;42176;43.240;27.880;2023-06-10T06:11:58;99511.03;;;36.22;25.88
56270;BME280;42176;43.240;27.880;2023-06-10T06:14:24;99515.53;;;37.33;24.05
56270;BME280;42176;43.240;27.880;2023-06-10T06:16:50;99499.66;;;37.98;23.63
56270;BME280;42176;43.240;27.880;2023-06-10T06:19:15;99499.91;;;37.96;23.63
56270;BME280;42176;43.240;27.880;2023-06-10T06:21:41;99501.59;;;37.21;21.44
56270;BME280;42176;43.240;27.880;2023-06-10T06:24:06;99507.72;;;36.98;22.23
56270;BME280;42176;43.240;27.880;2023-06-10T06:26:32;99512.81;;;37.58;21.19
56270;BME280;42176;43.240;27.880;2023-06-10T06:28:57;99512.66;;;37.72;20.95
56270;BME280;42176;43.240;27.880;2023-06-10T06:31:23;99511.44;;;37.10;21.29
56270;BME280;42176;43.240;27.880;2023-06-10T06:33:49;99504.66;;;37.13;21.69
56270;BME280;42176;43.240;27.880;2023-06-10T06:36:14;99497.78;;;36.51;22.11
56270;BME280;42176;43.240;27.880;2023-06-10T06:38:40;99496.69;;;35.40;23.99
56270;BME280;42176;43.240;27.880;2023-06-10T06:41:05;99497.88;;;34.76;24.62
56270;BME280;42176;43.240;27.880;2023-06-10T06:43:32;99485.66;;;35.40;24.02
56270;BME280;42176;43.240;27.880;2023-06-10T06:45:57;99497.09;;;35.36;23.75
56270;BME280;42176;43.240;27.880;2023-06-10T06:48:23;99491.31;;;34.78;25.03
56270;BME280;42176;43.240;27.880;2023-06-10T06:50:49;99491.44;;;35.51;23.86
56270;BME280;42176;43.240;27.880;2023-06-10T06:53:14;99490.13;;;35.81;23.78
56270;BME280;42176;43.240;27.880;2023-06-10T06:55:40;99491.66;;;36.81;22.27
56270;BME280;42176;43.240;27.880;2023-06-10T06:58:05;99487.38;;;36.85;22.02
56270;BME280;42176;43.240;27.880;2023-06-10T07:00:31;99479.66;;;37.01;22.04
56270;BME280;42176;43.240;27.880;2023-06-10T07:02:57;99485.16;;;37.58;21.69
56270;BME280;42176;43.240;27.880;2023-06-10T07:05:24;99474.69;;;38.04;21.73
56270;BME280;42176;43.240;27.880;2023-06-10T07:07:52;99477.84;;;38.76;20.74
56270;BME280;42176;43.240;27.880;2023-06-10T07:10:21;99471.22;;;39.19;20.40
56270;BME280;42176;43.240;27.880;2023-06-10T07:12:47;99468.53;;;39.01;20.18
56270;BME280;42176;43.240;27.880;2023-06-10T07:15:13;99463.28;;;38.80;19.53
56270;BME280;42176;43.240;27.880;2023-06-10T07:17:39;99467.72;;;37.58;21.42
56270;BME280;42176;43.240;27.880;2023-06-10T07:20:05;99461.13;;;36.69;22.24
56270;BME280;42176;43.240;27.880;2023-06-10T07:22:30;99462.38;;;35.62;24.28
56270;BME280;42176;43.240;27.880;2023-06-10T07:24:56;99460.25;;;34.97;25.07
56270;BME280;42176;43.240;27.880;2023-06-10T07:27:21;99465.31;;;35.41;24.22
56270;BME280;42176;43.240;27.880;2023-06-10T07:29:47;99458.41;;;34.42;25.35
56270;BME280;42176;43.240;27.880;2023-06-10T07:32:12;99455.66;;;33.94;25.89
56270;BME280;42176;43.240;27.880;2023-06-10T07:34:38;99468.72;;;33.35;26.50
56270;BME280;42176;43.240;27.880;2023-06-10T07:37:03;99468.56;;;32.56;26.67
56270;BME280;42176;43.240;27.880;2023-06-10T07:39:29;99473.75;;;32.81;26.95
56270;BME280;42176;43.240;27.880;2023-06-10T07:41:54;99476.47;;;33.24;26.56
56270;BME280;42176;43.240;27.880;2023-06-10T07:44:22;99471.16;;;34.08;25.67
56270;BME280;42176;43.240;27.880;2023-06-10T07:46:48;99475.50;;;35.20;24.33
56270;BME280;42176;43.240;27.880;2023-06-10T07:49:13;99471.53;;;36.22;23.50
56270;BME280;42176;43.240;27.880;2023-06-10T07:51:39;99480.09;;;36.98;22.40
56270;BME280;42176;43.240;27.880;2023-06-10T07:54:04;99477.53;;;37.54;21.16
56270;BME280;42176;43.240;27.880;2023-06-10T07:56:30;99470.56;;;37.70;20.99
56270;BME280;42176;43.240;27.880;2023-06-10T07:58:55;99463.72;;;37.72;21.17
56270;BME280;42176;43.240;27.880;2023-06-10T08:01:22;99461.63;;;38.12;20.68
56270;BME280;42176;43.240;27.880;2023-06-10T08:03:50;99461.63;;;38.12;18.86
56270;BME280;42176;43.240;27.880;2023-06-10T08:06:15;99470.78;;;37.50;19.91
56270;BME280;42176;43.240;27.880;2023-06-10T08:08:42;99465.25;;;37.50;20.39
56270;BME280;42176;43.240;27.880;2023-06-10T08:11:10;99449.22;;;37.33;20.58
56270;BME280;42176;43.240;27.880;2023-06-10T08:13:36;99439.16;;;37.39;20.40
56270;BME280;42176;43.240;27.880;2023-06-10T08:16:02;99453.72;;;36.70;21.32
56270;BME280;42176;43.240;27.880;2023-06-10T08:18:28;99454.50;;;36.77;21.73
56270;BME280;42176;43.240;27.880;2023-06-10T08:20:54;99456.91;;;36.67;22.20
56270;BME280;42176;43.240;27.880;2023-06-10T08:23:19;99456.44;;;35.65;22.73
56270;BME280;42176;43.240;27.880;2023-06-10T08:25:45;99469.13;;;34.92;23.26
56270;BME280;42176;43.240;27.880;2023-06-10T08:28:10;99448.53;;;34.06;24.08
56270;BME280;42176;43.240;27.880;2023-06-10T08:30:36;99432.81;;;34.00;24.95
56270;BME280;42176;43.240;27.880;2023-06-10T08:33:01;99453.44;;;34.86;23.30
56270;BME280;42176;43.240;27.880;2023-06-10T08:35:27;99440.78;;;35.46;22.96
56270;BME280;42176;43.240;27.880;2023-06-10T08:37:52;99447.94;;;35.74;22.70
56270;BME280;42176;43.240;27.880;2023-06-10T08:40:18;99454.66;;;35.91;22.04
56270;BME280;42176;43.240;27.880;2023-06-10T08:42:49;99455.78;;;36.36;21.58
56270;BME280;42176;43.240;27.880;2023-06-10T08:45:17;99460.00;;;36.45;22.09
56270;BME280;42176;43.240;27.880;2023-06-10T08:47:45;99454.06;;;36.48;21.59
56270;BME280;42176;43.240;27.880;2023-06-10T08:50:11;99456.81;;;36.48;21.57
56270;BME280;42176;43.240;27.880;2023-06-10T08:52:41;99443.41;;;36.52;21.39
56270;BME280;42176;43.240;27.880;2023-06-10T08:55:14;99442.63;;;36.38;22.14
56270;BME280;42176;43.240;27.880;2023-06-10T08:57:41;99436.22;;;36.44;22.18
56270;BME280;42176;43.240;27.880;2023-06-10T09:00:08;99448.44;;;36.62;21.47
56270;BME280;42176;43.240;27.880;2023-06-10T09:02:34;99422.38;;;36.12;21.93
56270;BME280;42176;43.240;27.880;2023-06-10T09:05:02;99435.72;;;36.15;22.28
56270;BME280;42176;43.240;27.880;2023-06-10T09:07:30;99428.78;;;35.92;22.48
56270;BME280;42176;43.240;27.880;2023-06-10T09:09:57;99444.97;;;35.69;22.94
56270;BME280;42176;43.240;27.880;2023-06-10T09:12:24;99431.25;;;34.95;23.62
56270;BME280;42176;43.240;27.880;2023-06-10T09:14:49;99422.47;;;34.64;23.76
56270;BME280;42176;43.240;27.880;2023-06-10T09:17:16;99421.19;;;34.53;23.83
56270;BME280;42176;43.240;27.880;2023-06-10T09:19:44;99415.13;;;34.09;24.26
56270;BME280;42176;43.240;27.880;2023-06-10T09:22:09;99419.56;;;33.18;24.37
56270;BME280;42176;43.240;27.880;2023-06-10T09:24:35;99423.34;;;32.30;26.08
56270;BME280;42176;43.240;27.880;2023-06-10T09:27:04;99423.47;;;31.62;27.98
56270;BME280;42176;43.240;27.880;2023-06-10T09:29:32;99436.41;;;31.38;28.94
56270;BME280;42176;43.240;27.880;2023-06-10T09:31:57;99419.75;;;31.25;28.13
56270;BME280;42176;43.240;27.880;2023-06-10T09:34:25;99416.13;;;31.09;28.55
56270;BME280;42176;43.240;27.880;2023-06-10T09:36:51;99411.81;;;31.30;28.50
56270;BME280;42176;43.240;27.880;2023-06-10T09:39:18;99421.22;;;31.12;27.86
56270;BME280;42176;43.240;27.880;2023-06-10T09:41:45;99411.31;;;31.11;28.04
56270;BME280;42176;43.240;27.880;2023-06-10T09:44:15;99414.66;;;30.98;28.87
56270;BME280;42176;43.240;27.880;2023-06-10T09:46:42;99408.41;;;30.90;29.24
56270;BME280;42176;43.240;27.880;2023-06-10T09:49:08;99400.50;;;30.95;29.56
56270;BME280;42176;43.240;27.880;2023-06-10T09:51:33;99409.56;;;31.19;29.15
56270;BME280;42176;43.240;27.880;2023-06-10T09:54:02;99415.66;;;30.82;27.66
56270;BME280;42176;43.240;27.880;2023-06-10T09:56:38;99415.59;;;30.67;28.32
56270;BME280;42176;43.240;27.880;2023-06-10T09:59:07;99415.13;;;30.64;28.71
56270;BME280;42176;43.240;27.880;2023-06-10T10:01:34;99397.28;;;30.68;28.58
56270;BME280;42176;43.240;27.880;2023-06-10T10:04:00;99406.25;;;30.62;28.26
56270;BME280;42176;43.240;27.880;2023-06-10T10:06:27;99392.66;;;30.92;27.73
56270;BME280;42176;43.240;27.880;2023-06-10T10:08:53;99390.66;;;30.86;27.84
56270;BME280;42176;43.240;27.880;2023-06-10T10:11:21;99400.50;;;30.95;27.96
56270;BME280;42176;43.240;27.880;2023-06-10T10:13:49;99398.34;;;30.67;27.64
56270;BME280;42176;43.240;27.880;2023-06-10T10:16:17;99400.47;;;30.57;27.80
56270;BME280;42176;43.240;27.880;2023-06-10T10:18:54;99403.50;;;30.62;27.52
56270;BME280;42176;43.240;27.880;2023-06-10T10:21:25;99392.00;;;30.90;27.31
56270;BME280;42176;43.240;27.880;2023-06-10T10:26:25;99392.47;;;31.17;27.45
56270;BME280;42176;43.240;27.880;2023-06-10T10:29:20;99378.06;;;31.53;26.21
56270;BME280;42176;43.240;27.880;2023-06-10T10:31:43;99387.69;;;31.79;27.11
56270;BME280;42176;43.240;27.880;2023-06-10T10:34:23;99390.88;;;31.97;26.66
56270;BME280;42176;43.240;27.880;2023-06-10T10:36:50;99374.28;;;31.84;26.42
56270;BME280;42176;43.240;27.880;2023-06-10T10:39:16;99374.56;;;31.74;27.70
56270;BME280;42176;43.240;27.880;2023-06-10T10:41:42;99376.53;;;31.65;27.17
56270;BME280;42176;43.240;27.880;2023-06-10T10:44:09;99377.31;;;31.29;26.56
56270;BME280;42176;43.240;27.880;2023-06-10T10:46:49;99371.53;;;31.54;26.34
56270;BME280;42176;43.240;27.880;2023-06-10T10:49:16;99378.59;;;31.63;26.64
56270;BME280;42176;43.240;27.880;2023-06-10T10:52:01;99375.59;;;31.73;26.85
56270;BME280;42176;43.240;27.880;2023-06-10T10:54:36;99380.13;;;31.51;27.45
56270;BME280;42176;43.240;27.880;2023-06-10T10:59:55;99372.75;;;31.36;28.72
56270;BME280;42176;43.240;27.880;2023-06-10T11:02:34;99356.88;;;31.17;29.28
56270;BME280;42176;43.240;27.880;2023-06-10T11:05:01;99353.88;;;31.26;29.25
56270;BME280;42176;43.240;27.880;2023-06-10T11:07:30;99361.00;;;31.12;29.20
56270;BME280;42176;43.240;27.880;2023-06-10T11:10:05;99367.81;;;31.17;29.25
56270;BME280;42176;43.240;27.880;2023-06-10T11:12:41;99357.59;;;31.10;29.15
56270;BME280;42176;43.240;27.880;2023-06-10T11:15:08;99360.03;;;31.05;29.67
56270;BME280;42176;43.240;27.880;2023-06-10T11:17:33;99355.53;;;31.12;28.71
56270;BME280;42176;43.240;27.880;2023-06-10T11:19:59;99345.69;;;31.03;28.70
56270;BME280;42176;43.240;27.880;2023-06-10T11:22:25;99348.06;;;31.06;28.19
56270;BME280;42176;43.240;27.880;2023-06-10T11:24:51;99350.66;;;30.84;27.31
56270;BME280;42176;43.240;27.880;2023-06-10T11:27:23;99349.88;;;30.52;27.58
56270;BME280;42176;43.240;27.880;2023-06-10T11:32:33;99340.00;;;29.97;28.31
56270;BME280;42176;43.240;27.880;2023-06-10T11:34:59;99330.13;;;29.87;29.03
56270;BME280;42176;43.240;27.880;2023-06-10T11:37:25;99333.91;;;29.86;29.10
56270;BME280;42176;43.240;27.880;2023-06-10T11:39:54;99330.22;;;29.71;30.38
56270;BME280;42176;43.240;27.880;2023-06-10T11:42:20;99329.88;;;29.74;30.97
56270;BME280;42176;43.240;27.880;2023-06-10T11:44:50;99333.03;;;29.46;31.14
56270;BME280;42176;43.240;27.880;2023-06-10T11:47:16;99321.50;;;29.27;31.39
56270;BME280;42176;43.240;27.880;2023-06-10T11:49:42;99330.38;;;29.21;31.78
56270;BME280;42176;43.240;27.880;2023-06-10T11:52:07;99319.13;;;29.16;32.08
56270;BME280;42176;43.240;27.880;2023-06-10T11:54:33;99338.75;;;29.68;30.01
56270;BME280;42176;43.240;27.880;2023-06-10T11:56:59;99315.66;;;30.10;29.80
56270;BME280;42176;43.240;27.880;2023-06-10T11:59:29;99307.00;;;30.30;29.74
56270;BME280;42176;43.240;27.880;2023-06-10T12:01:55;99313.56;;;30.44;29.48
56270;BME280;42176;43.240;27.880;2023-06-10T12:04:20;99305.38;;;30.67;29.68
56270;BME280;42176;43.240;27.880;2023-06-10T12:06:48;99306.06;;;30.99;28.41
56270;BME280;42176;43.240;27.880;2023-06-10T12:09:21;99299.00;;;31.05;26.75
56270;BME280;42176;43.240;27.880;2023-06-10T12:11:51;99304.44;;;31.28;27.47
56270;BME280;42176;43.240;27.880;2023-06-10T12:14:53;99303.53;;;31.57;26.62
56270;BME280;42176;43.240;27.880;2023-06-10T12:17:42;99290.03;;;31.56;26.33
56270;BME280;42176;43.240;27.880;2023-06-10T12:20:24;99300.03;;;31.49;27.43
56270;BME280;42176;43.240;27.880;2023-06-10T12:22:49;99303.38;;;31.44;28.13
56270;BME280;42176;43.240;27.880;2023-06-10T12:25:14;99297.50;;;31.32;27.88
56270;BME280;42176;43.240;27.880;2023-06-10T12:27:41;99292.31;;;31.37;27.81
56270;BME280;42176;43.240;27.880;2023-06-10T12:30:19;99304.22;;;31.44;28.24
56270;BME280;42176;43.240;27.880;2023-06-10T12:32:46;99291.19;;;31.77;27.96
56270;BME280;42176;43.240;27.880;2023-06-10T12:35:23;99282.59;;;32.01;28.30
56270;BME280;42176;43.240;27.880;2023-06-10T12:38:09;99284.31;;;32.46;27.18
56270;BME280;42176;43.240;27.880;2023-06-10T12:40:38;99274.53;;;32.37;27.36
56270;BME280;42176;43.240;27.880;2023-06-10T12:43:05;99278.69;;;32.32;27.76
56270;BME280;42176;43.240;27.880;2023-06-10T12:45:35;99273.50;;;32.23;27.76
56270;BME280;42176;43.240;27.880;2023-06-10T12:48:06;99266.88;;;32.32;27.86
56270;BME280;42176;43.240;27.880;2023-06-10T12:50:41;99267.19;;;32.22;28.29
56270;BME280;42176;43.240;27.880;2023-06-10T12:53:08;99267.72;;;32.32;27.98
56270;BME280;42176;43.240;27.880;2023-06-10T12:55:34;99248.00;;;32.00;28.66
56270;BME280;42176;43.240;27.880;2023-06-10T12:58:00;99268.59;;;31.59;29.24
56270;BME280;42176;43.240;27.880;2023-06-10T13:00:27;99279.09;;;31.56;29.51
56270;BME280;42176;43.240;27.880;2023-06-10T13:02:59;99268.44;;;31.31;30.15